sensor_id;sensor_type;location;lat;lon;timestamp;P1;durP1;ratioP1;P2;durP2;ratioP2
79640;SDS011;69115;49.904;14.390;2023-05-10T00:01:01;10.23;;;5.82;;
79640;SDS011;69115;49.904;14.390;2023-05-10T00:03:27;10.73;;;5.97;;
79640;SDS011;69115;49.904;14.390;2023-05-10T00:05:53;11.20;;;6.25;;
79640;SDS011;69115;49.904;14.390;2023-05-10T00:08:18;8.93;;;5.40;;
79640;SDS011;69115;49.904;14.390;2023-05-10T00:10:44;9.40;;;5.95;;
79640;SDS011;69115;49.904;14.390;2023-05-10T00:13:09;7.80;;;5.78;;
79640;SDS011;69115;49.904;14.390;2023-05-10T00:15:35;8.90;;;5.50;;
79640;SDS011;69115;49.904;14.390;2023-05-10T00:18:00;11.65;;;5.97;;
79640;SDS011;69115;49.904;14.390;2023-05-10T00:20:25;9.75;;;6.00;;
79640;SDS011;69115;49.904;14.390;2023-05-10T00:22:51;12.43;;;5.90;;
79640;SDS011;69115;49.904;14.390;2023-05-10T00:25:16;12.25;;;5.85;;
79640;SDS011;69115;49.904;14.390;2023-05-10T00:27:42;10.98;;;6.25;;
79640;SDS011;69115;49.904;14.390;2023-05-10T00:30:07;9.15;;;5.60;;
79640;SDS011;69115;49.904;14.390;2023-05-10T00:32:33;8.55;;;5.43;;
79640;SDS011;69115;49.904;14.390;2023-05-10T00:34:58;9.77;;;5.90;;
79640;SDS011;69115;49.904;14.390;2023-05-10T00:37:24;10.10;;;6.03;;
79640;SDS011;69115;49.904;14.390;2023-05-10T00:39:49;10.10;;;6.15;;
79640;SDS011;69115;49.904;14.390;2023-05-10T00:42:14;12.50;;;5.65;;
79640;SDS011;69115;49.904;14.390;2023-05-10T00:44:40;9.50;;;5.70;;
79640;SDS011;69115;49.904;14.390;2023-05-10T00:47:05;9.35;;;5.38;;
79640;SDS011;69115;49.904;14.390;2023-05-10T00:49:31;8.38;;;5.82;;
79640;SDS011;69115;49.904;14.390;2023-05-10T00:51:56;9.63;;;5.97;;
79640;SDS011;69115;49.904;14.390;2023-05-10T00:54:22;9.85;;;5.85;;
79640;SDS011;69115;49.904;14.390;2023-05-10T00:56:47;11.35;;;6.00;;
79640;SDS011;69115;49.904;14.390;2023-05-10T00:59:17;10.48;;;6.30;;
79640;SDS011;69115;49.904;14.390;2023-05-10T01:01:43;10.20;;;6.05;;
79640;SDS011;69115;49.904;14.390;2023-05-10T01:04:10;9.45;;;5.13;;
79640;SDS011;69115;49.904;14.390;2023-05-10T01:06:38;8.55;;;5.63;;
79640;SDS011;69115;49.904;14.390;2023-05-10T01:09:04;8.70;;;5.72;;
79640;SDS011;69115;49.904;14.390;2023-05-10T01:11:31;9.20;;;5.90;;
79640;SDS011;69115;49.904;14.390;2023-05-10T01:13:57;11.38;;;6.05;;
79640;SDS011;69115;49.904;14.390;2023-05-10T01:16:23;13.02;;;5.80;;
79640;SDS011;69115;49.904;14.390;2023-05-10T01:18:49;13.48;;;6.00;;
79640;SDS011;69115;49.904;14.390;2023-05-10T01:21:17;12.60;;;6.00;;
79640;SDS011;69115;49.904;14.390;2023-05-10T01:34:38;12.52;;;6.28;;
79640;SDS011;69115;49.904;14.390;2023-05-10T01:37:17;19.27;;;7.57;;
79640;SDS011;69115;49.904;14.390;2023-05-10T01:39:47;20.13;;;7.38;;
79640;SDS011;69115;49.904;14.390;2023-05-10T01:42:25;16.77;;;7.07;;
79640;SDS011;69115;49.904;14.390;2023-05-10T01:44:58;13.60;;;6.45;;
79640;SDS011;69115;49.904;14.390;2023-05-10T01:50:19;12.90;;;6.47;;
79640;SDS011;69115;49.904;14.390;2023-05-10T01:52:49;13.68;;;6.65;;
79640;SDS011;69115;49.904;14.390;2023-05-10T01:55:17;11.23;;;6.25;;
79640;SDS011;69115;49.904;14.390;2023-05-10T01:57:46;11.48;;;5.60;;
79640;SDS011;69115;49.904;14.390;2023-05-10T02:00:11;10.18;;;5.85;;
79640;SDS011;69115;49.904;14.390;2023-05-10T02:02:48;10.52;;;6.20;;
79640;SDS011;69115;49.904;14.390;2023-05-10T02:05:14;13.85;;;6.00;;
79640;SDS011;69115;49.904;14.390;2023-05-10T02:07:40;11.48;;;6.22;;
79640;SDS011;69115;49.904;14.390;2023-05-10T02:10:06;13.10;;;6.38;;
79640;SDS011;69115;49.904;14.390;2023-05-10T02:12:36;11.40;;;6.10;;
79640;SDS011;69115;49.904;14.390;2023-05-10T02:15:04;11.38;;;6.13;;
79640;SDS011;69115;49.904;14.390;2023-05-10T02:17:31;11.75;;;6.05;;
79640;SDS011;69115;49.904;14.390;2023-05-10T02:19:58;11.07;;;5.25;;
79640;SDS011;69115;49.904;14.390;2023-05-10T02:22:24;12.75;;;6.18;;
79640;SDS011;69115;49.904;14.390;2023-05-10T02:24:51;11.20;;;5.20;;
79640;SDS011;69115;49.904;14.390;2023-05-10T02:27:17;11.05;;;5.60;;
79640;SDS011;69115;49.904;14.390;2023-05-10T02:29:44;13.80;;;6.78;;
79640;SDS011;69115;49.904;14.390;2023-05-10T02:32:09;10.70;;;6.00;;
79640;SDS011;69115;49.904;14.390;2023-05-10T02:34:36;9.55;;;6.07;;
79640;SDS011;69115;49.904;14.390;2023-05-10T02:37:01;9.00;;;5.93;;
79640;SDS011;69115;49.904;14.390;2023-05-10T02:39:27;10.52;;;5.63;;
79640;SDS011;69115;49.904;14.390;2023-05-10T02:41:53;9.50;;;5.78;;
79640;SDS011;69115;49.904;14.390;2023-05-10T02:44:20;10.35;;;6.30;;
79640;SDS011;69115;49.904;14.390;2023-05-10T02:46:46;9.48;;;6.43;;
79640;SDS011;69115;49.904;14.390;2023-05-10T02:49:11;11.00;;;6.50;;
79640;SDS011;69115;49.904;14.390;2023-05-10T02:51:38;13.82;;;6.18;;
79640;SDS011;69115;49.904;14.390;2023-05-10T02:54:09;11.15;;;6.50;;
79640;SDS011;69115;49.904;14.390;2023-05-10T02:56:39;10.57;;;6.13;;
79640;SDS011;69115;49.904;14.390;2023-05-10T02:59:07;10.45;;;5.82;;
79640;SDS011;69115;49.904;14.390;2023-05-10T03:01:33;8.98;;;6.35;;
79640;SDS011;69115;49.904;14.390;2023-05-10T03:03:59;10.77;;;6.50;;
79640;SDS011;69115;49.904;14.390;2023-05-10T03:06:24;10.48;;;6.38;;
79640;SDS011;69115;49.904;14.390;2023-05-10T03:08:50;9.85;;;6.50;;
79640;SDS011;69115;49.904;14.390;2023-05-10T03:14:31;10.23;;;6.00;;
79640;SDS011;69115;49.904;14.390;2023-05-10T03:17:00;18.85;;;6.55;;
79640;SDS011;69115;49.904;14.390;2023-05-10T03:22:17;11.15;;;6.18;;
79640;SDS011;69115;49.904;14.390;2023-05-10T03:24:49;12.32;;;7.35;;
79640;SDS011;69115;49.904;14.390;2023-05-10T03:27:14;15.75;;;6.72;;
79640;SDS011;69115;49.904;14.390;2023-05-10T03:29:40;12.82;;;6.38;;
79640;SDS011;69115;49.904;14.390;2023-05-10T03:32:06;11.32;;;5.82;;
79640;SDS011;69115;49.904;14.390;2023-05-10T03:34:32;14.15;;;6.70;;
79640;SDS011;69115;49.904;14.390;2023-05-10T03:36:57;17.27;;;6.75;;
79640;SDS011;69115;49.904;14.390;2023-05-10T03:39:23;14.75;;;6.43;;
79640;SDS011;69115;49.904;14.390;2023-05-10T03:41:49;14.27;;;6.43;;
79640;SDS011;69115;49.904;14.390;2023-05-10T03:44:15;12.77;;;6.70;;
79640;SDS011;69115;49.904;14.390;2023-05-10T03:46:41;9.88;;;5.97;;
79640;SDS011;69115;49.904;14.390;2023-05-10T03:49:06;10.13;;;6.35;;
79640;SDS011;69115;49.904;14.390;2023-05-10T03:51:32;12.98;;;6.78;;
79640;SDS011;69115;49.904;14.390;2023-05-10T03:53:57;11.57;;;6.70;;
79640;SDS011;69115;49.904;14.390;2023-05-10T03:56:23;13.73;;;6.43;;
79640;SDS011;69115;49.904;14.390;2023-05-10T03:58:48;10.95;;;6.30;;
79640;SDS011;69115;49.904;14.390;2023-05-10T04:01:14;15.80;;;6.53;;
79640;SDS011;69115;49.904;14.390;2023-05-10T04:03:40;10.65;;;6.57;;
79640;SDS011;69115;49.904;14.390;2023-05-10T04:06:05;9.05;;;5.63;;
79640;SDS011;69115;49.904;14.390;2023-05-10T04:08:33;8.80;;;5.60;;
79640;SDS011;69115;49.904;14.390;2023-05-10T04:11:05;11.32;;;6.07;;
79640;SDS011;69115;49.904;14.390;2023-05-10T04:13:34;15.63;;;8.35;;
79640;SDS011;69115;49.904;14.390;2023-05-10T04:16:00;12.57;;;7.63;;
79640;SDS011;69115;49.904;14.390;2023-05-10T04:18:25;20.80;;;8.65;;
79640;SDS011;69115;49.904;14.390;2023-05-10T04:20:51;15.90;;;7.93;;
79640;SDS011;69115;49.904;14.390;2023-05-10T04:23:16;15.77;;;8.95;;
79640;SDS011;69115;49.904;14.390;2023-05-10T04:25:42;14.07;;;7.22;;
79640;SDS011;69115;49.904;14.390;2023-05-10T04:28:07;15.88;;;7.85;;
79640;SDS011;69115;49.904;14.390;2023-05-10T04:30:33;12.77;;;6.75;;
79640;SDS011;69115;49.904;14.390;2023-05-10T04:32:58;15.10;;;8.82;;
79640;SDS011;69115;49.904;14.390;2023-05-10T04:35:23;16.63;;;8.15;;
79640;SDS011;69115;49.904;14.390;2023-05-10T04:37:49;17.67;;;8.23;;
79640;SDS011;69115;49.904;14.390;2023-05-10T04:40:15;16.50;;;8.65;;
79640;SDS011;69115;49.904;14.390;2023-05-10T04:42:40;14.48;;;8.32;;
79640;SDS011;69115;49.904;14.390;2023-05-10T04:45:08;11.05;;;6.32;;
79640;SDS011;69115;49.904;14.390;2023-05-10T04:47:35;10.95;;;5.85;;
79640;SDS011;69115;49.904;14.390;2023-05-10T04:50:02;16.52;;;6.85;;
79640;SDS011;69115;49.904;14.390;2023-05-10T04:52:28;15.55;;;8.00;;
79640;SDS011;69115;49.904;14.390;2023-05-10T04:54:53;16.15;;;6.88;;
79640;SDS011;69115;49.904;14.390;2023-05-10T04:57:19;19.17;;;8.05;;
79640;SDS011;69115;49.904;14.390;2023-05-10T04:59:44;19.25;;;8.88;;
79640;SDS011;69115;49.904;14.390;2023-05-10T05:02:09;21.67;;;9.68;;
79640;SDS011;69115;49.904;14.390;2023-05-10T05:04:35;19.13;;;8.90;;
79640;SDS011;69115;49.904;14.390;2023-05-10T05:07:00;15.80;;;8.25;;
79640;SDS011;69115;49.904;14.390;2023-05-10T05:09:26;17.00;;;8.52;;
79640;SDS011;69115;49.904;14.390;2023-05-10T05:11:52;21.08;;;8.13;;
79640;SDS011;69115;49.904;14.390;2023-05-10T05:14:18;23.23;;;9.43;;
79640;SDS011;69115;49.904;14.390;2023-05-10T05:16:46;25.40;;;9.77;;
79640;SDS011;69115;49.904;14.390;2023-05-10T05:19:11;18.63;;;8.10;;
79640;SDS011;69115;49.904;14.390;2023-05-10T05:21:37;17.63;;;7.53;;
79640;SDS011;69115;49.904;14.390;2023-05-10T05:24:02;17.98;;;7.57;;
79640;SDS011;69115;49.904;14.390;2023-05-10T05:26:28;17.30;;;7.72;;
79640;SDS011;69115;49.904;14.390;2023-05-10T05:28:53;13.63;;;7.07;;
79640;SDS011;69115;49.904;14.390;2023-05-10T05:31:20;19.73;;;7.60;;
79640;SDS011;69115;49.904;14.390;2023-05-10T05:33:45;14.32;;;7.10;;
79640;SDS011;69115;49.904;14.390;2023-05-10T05:36:11;12.32;;;7.18;;
79640;SDS011;69115;49.904;14.390;2023-05-10T05:38:36;18.92;;;8.60;;
79640;SDS011;69115;49.904;14.390;2023-05-10T05:41:02;16.75;;;7.40;;
79640;SDS011;69115;49.904;14.390;2023-05-10T05:43:28;15.80;;;7.80;;
79640;SDS011;69115;49.904;14.390;2023-05-10T05:45:53;17.08;;;7.20;;
79640;SDS011;69115;49.904;14.390;2023-05-10T05:48:19;15.25;;;7.60;;
79640;SDS011;69115;49.904;14.390;2023-05-10T05:50:45;15.73;;;7.40;;
79640;SDS011;69115;49.904;14.390;2023-05-10T05:53:10;17.80;;;6.60;;
79640;SDS011;69115;49.904;14.390;2023-05-10T05:55:36;11.68;;;6.55;;
79640;SDS011;69115;49.904;14.390;2023-05-10T05:58:01;15.35;;;5.57;;
79640;SDS011;69115;49.904;14.390;2023-05-10T06:00:27;11.32;;;6.07;;
79640;SDS011;69115;49.904;14.390;2023-05-10T06:02:52;8.13;;;5.45;;
79640;SDS011;69115;49.904;14.390;2023-05-10T06:05:18;10.45;;;6.07;;
79640;SDS011;69115;49.904;14.390;2023-05-10T06:07:43;7.22;;;4.50;;
79640;SDS011;69115;49.904;14.390;2023-05-10T06:10:09;11.02;;;4.60;;
79640;SDS011;69115;49.904;14.390;2023-05-10T06:12:35;8.88;;;5.15;;
79640;SDS011;69115;49.904;14.390;2023-05-10T06:15:00;10.55;;;4.72;;
79640;SDS011;69115;49.904;14.390;2023-05-10T06:17:26;16.38;;;5.03;;
79640;SDS011;69115;49.904;14.390;2023-05-10T06:19:52;9.65;;;5.03;;
79640;SDS011;69115;49.904;14.390;2023-05-10T06:22:18;6.82;;;4.70;;
79640;SDS011;69115;49.904;14.390;2023-05-10T06:24:43;8.68;;;4.40;;
79640;SDS011;69115;49.904;14.390;2023-05-10T06:27:09;6.90;;;3.65;;
79640;SDS011;69115;49.904;14.390;2023-05-10T06:29:34;6.40;;;3.78;;
79640;SDS011;69115;49.904;14.390;2023-05-10T06:32:00;5.97;;;4.00;;
79640;SDS011;69115;49.904;14.390;2023-05-10T06:34:25;6.30;;;4.15;;
79640;SDS011;69115;49.904;14.390;2023-05-10T06:36:51;9.25;;;5.45;;
79640;SDS011;69115;49.904;14.390;2023-05-10T06:39:16;9.15;;;5.60;;
79640;SDS011;69115;49.904;14.390;2023-05-10T06:41:42;6.97;;;5.32;;
79640;SDS011;69115;49.904;14.390;2023-05-10T06:44:08;11.00;;;4.50;;
79640;SDS011;69115;49.904;14.390;2023-05-10T06:46:33;9.45;;;3.75;;
79640;SDS011;69115;49.904;14.390;2023-05-10T06:48:58;5.85;;;3.80;;
79640;SDS011;69115;49.904;14.390;2023-05-10T06:51:24;5.55;;;3.42;;
79640;SDS011;69115;49.904;14.390;2023-05-10T06:53:51;4.65;;;3.40;;
79640;SDS011;69115;49.904;14.390;2023-05-10T06:56:17;8.20;;;3.72;;
79640;SDS011;69115;49.904;14.390;2023-05-10T06:58:43;6.78;;;3.50;;
79640;SDS011;69115;49.904;14.390;2023-05-10T07:01:08;5.10;;;3.55;;
79640;SDS011;69115;49.904;14.390;2023-05-10T07:03:34;4.93;;;3.75;;
79640;SDS011;69115;49.904;14.390;2023-05-10T07:06:02;6.35;;;3.70;;
79640;SDS011;69115;49.904;14.390;2023-05-10T07:08:31;5.88;;;3.58;;
79640;SDS011;69115;49.904;14.390;2023-05-10T07:11:04;7.18;;;3.67;;
79640;SDS011;69115;49.904;14.390;2023-05-10T07:13:30;7.90;;;3.83;;
79640;SDS011;69115;49.904;14.390;2023-05-10T07:15:57;4.95;;;4.10;;
79640;SDS011;69115;49.904;14.390;2023-05-10T07:18:23;8.05;;;3.67;;
79640;SDS011;69115;49.904;14.390;2023-05-10T07:20:48;5.80;;;3.33;;
79640;SDS011;69115;49.904;14.390;2023-05-10T07:23:14;4.80;;;3.42;;
79640;SDS011;69115;49.904;14.390;2023-05-10T07:25:40;5.07;;;3.50;;
79640;SDS011;69115;49.904;14.390;2023-05-10T07:28:05;5.40;;;3.33;;
79640;SDS011;69115;49.904;14.390;2023-05-10T07:30:30;6.00;;;3.58;;
79640;SDS011;69115;49.904;14.390;2023-05-10T07:32:56;5.05;;;3.33;;
79640;SDS011;69115;49.904;14.390;2023-05-10T07:35:21;5.78;;;3.50;;
79640;SDS011;69115;49.904;14.390;2023-05-10T07:37:47;5.65;;;3.88;;
79640;SDS011;69115;49.904;14.390;2023-05-10T07:40:12;6.60;;;3.80;;
79640;SDS011;69115;49.904;14.390;2023-05-10T07:42:38;6.68;;;3.80;;
79640;SDS011;69115;49.904;14.390;2023-05-10T07:45:04;6.05;;;3.45;;
79640;SDS011;69115;49.904;14.390;2023-05-10T07:47:29;6.35;;;3.55;;
79640;SDS011;69115;49.904;14.390;2023-05-10T07:49:55;8.15;;;3.55;;
79640;SDS011;69115;49.904;14.390;2023-05-10T07:52:20;4.97;;;3.47;;
79640;SDS011;69115;49.904;14.390;2023-05-10T07:54:46;5.63;;;3.65;;
79640;SDS011;69115;49.904;14.390;2023-05-10T07:57:11;7.25;;;3.40;;
79640;SDS011;69115;49.904;14.390;2023-05-10T07:59:39;5.00;;;3.53;;
79640;SDS011;69115;49.904;14.390;2023-05-10T08:02:04;7.63;;;3.80;;
79640;SDS011;69115;49.904;14.390;2023-05-10T08:04:30;5.35;;;3.53;;
79640;SDS011;69115;49.904;14.390;2023-05-10T08:06:56;4.55;;;3.47;;
79640;SDS011;69115;49.904;14.390;2023-05-10T08:09:21;6.75;;;3.50;;
79640;SDS011;69115;49.904;14.390;2023-05-10T08:11:49;7.65;;;3.80;;
79640;SDS011;69115;49.904;14.390;2023-05-10T08:14:16;5.70;;;3.28;;
79640;SDS011;69115;49.904;14.390;2023-05-10T08:16:42;6.95;;;3.45;;
79640;SDS011;69115;49.904;14.390;2023-05-10T08:19:07;9.00;;;3.45;;
79640;SDS011;69115;49.904;14.390;2023-05-10T08:21:33;5.75;;;3.70;;
79640;SDS011;69115;49.904;14.390;2023-05-10T08:23:58;6.25;;;3.33;;
79640;SDS011;69115;49.904;14.390;2023-05-10T08:26:24;8.00;;;3.30;;
79640;SDS011;69115;49.904;14.390;2023-05-10T08:28:49;6.75;;;3.70;;
79640;SDS011;69115;49.904;14.390;2023-05-10T08:31:15;5.55;;;3.67;;
79640;SDS011;69115;49.904;14.390;2023-05-10T08:33:40;4.43;;;3.38;;
79640;SDS011;69115;49.904;14.390;2023-05-10T08:36:06;8.27;;;3.50;;
79640;SDS011;69115;49.904;14.390;2023-05-10T08:38:32;5.97;;;3.38;;
79640;SDS011;69115;49.904;14.390;2023-05-10T08:40:57;6.60;;;3.47;;
79640;SDS011;69115;49.904;14.390;2023-05-10T08:43:26;5.47;;;3.30;;
79640;SDS011;69115;49.904;14.390;2023-05-10T08:45:53;7.22;;;4.18;;
79640;SDS011;69115;49.904;14.390;2023-05-10T08:48:19;6.47;;;3.90;;
79640;SDS011;69115;49.904;14.390;2023-05-10T08:50:45;6.07;;;3.75;;
79640;SDS011;69115;49.904;14.390;2023-05-10T08:53:12;5.70;;;3.70;;
79640;SDS011;69115;49.904;14.390;2023-05-10T08:55:39;5.82;;;3.42;;
79640;SDS011;69115;49.904;14.390;2023-05-10T08:58:07;6.43;;;3.55;;
79640;SDS011;69115;49.904;14.390;2023-05-10T09:00:33;6.85;;;3.35;;
79640;SDS011;69115;49.904;14.390;2023-05-10T09:03:00;6.35;;;3.58;;
79640;SDS011;69115;49.904;14.390;2023-05-10T09:05:26;4.30;;;3.33;;
79640;SDS011;69115;49.904;14.390;2023-05-10T09:07:52;6.55;;;3.50;;
79640;SDS011;69115;49.904;14.390;2023-05-10T09:10:17;4.50;;;3.55;;
79640;SDS011;69115;49.904;14.390;2023-05-10T09:12:44;5.05;;;3.60;;
79640;SDS011;69115;49.904;14.390;2023-05-10T09:15:10;6.85;;;3.53;;
79640;SDS011;69115;49.904;14.390;2023-05-10T09:17:36;5.35;;;3.10;;
79640;SDS011;69115;49.904;14.390;2023-05-10T09:20:03;8.73;;;3.95;;
79640;SDS011;69115;49.904;14.390;2023-05-10T09:22:32;6.10;;;3.45;;
79640;SDS011;69115;49.904;14.390;2023-05-10T09:25:10;4.88;;;3.53;;
79640;SDS011;69115;49.904;14.390;2023-05-10T09:27:37;6.85;;;3.67;;
79640;SDS011;69115;49.904;14.390;2023-05-10T09:30:04;6.20;;;3.55;;
79640;SDS011;69115;49.904;14.390;2023-05-10T09:35:09;5.07;;;3.50;;
79640;SDS011;69115;49.904;14.390;2023-05-10T09:37:35;5.05;;;3.25;;
79640;SDS011;69115;49.904;14.390;2023-05-10T09:40:00;4.40;;;3.50;;
79640;SDS011;69115;49.904;14.390;2023-05-10T09:42:29;5.28;;;3.20;;
79640;SDS011;69115;49.904;14.390;2023-05-10T09:44:59;6.60;;;3.40;;
79640;SDS011;69115;49.904;14.390;2023-05-10T09:47:25;6.68;;;3.42;;
79640;SDS011;69115;49.904;14.390;2023-05-10T09:49:52;5.57;;;3.65;;
79640;SDS011;69115;49.904;14.390;2023-05-10T09:52:18;5.10;;;3.53;;
79640;SDS011;69115;49.904;14.390;2023-05-10T09:54:52;5.18;;;3.92;;
79640;SDS011;69115;49.904;14.390;2023-05-10T09:57:20;5.82;;;3.72;;
79640;SDS011;69115;49.904;14.390;2023-05-10T09:59:46;4.85;;;3.70;;
79640;SDS011;69115;49.904;14.390;2023-05-10T10:02:12;8.77;;;3.50;;
79640;SDS011;69115;49.904;14.390;2023-05-10T10:04:39;9.57;;;3.78;;
79640;SDS011;69115;49.904;14.390;2023-05-10T10:07:04;6.15;;;3.95;;
79640;SDS011;69115;49.904;14.390;2023-05-10T10:09:30;4.65;;;3.47;;
79640;SDS011;69115;49.904;14.390;2023-05-10T10:11:56;5.55;;;3.60;;
79640;SDS011;69115;49.904;14.390;2023-05-10T10:14:22;5.85;;;3.78;;
79640;SDS011;69115;49.904;14.390;2023-05-10T10:16:49;5.25;;;3.60;;
79640;SDS011;69115;49.904;14.390;2023-05-10T10:19:16;5.45;;;3.50;;
79640;SDS011;69115;49.904;14.390;2023-05-10T10:21:43;5.20;;;3.40;;
79640;SDS011;69115;49.904;14.390;2023-05-10T10:24:08;5.20;;;3.20;;
79640;SDS011;69115;49.904;14.390;2023-05-10T10:26:33;5.22;;;3.58;;
79640;SDS011;69115;49.904;14.390;2023-05-10T10:29:08;9.90;;;3.85;;
79640;SDS011;69115;49.904;14.390;2023-05-10T10:34:47;7.57;;;3.60;;
79640;SDS011;69115;49.904;14.390;2023-05-10T10:37:13;6.53;;;3.85;;
79640;SDS011;69115;49.904;14.390;2023-05-10T10:39:38;5.63;;;3.47;;
79640;SDS011;69115;49.904;14.390;2023-05-10T10:42:04;5.15;;;3.80;;
79640;SDS011;69115;49.904;14.390;2023-05-10T10:50:02;6.45;;;3.10;;
79640;SDS011;69115;49.904;14.390;2023-05-10T10:55:18;4.57;;;3.38;;
79640;SDS011;69115;49.904;14.390;2023-05-10T10:57:52;5.80;;;3.10;;
79640;SDS011;69115;49.904;14.390;2023-05-10T11:03:08;4.38;;;3.22;;
79640;SDS011;69115;49.904;14.390;2023-05-10T11:05:44;4.35;;;3.30;;
79640;SDS011;69115;49.904;14.390;2023-05-10T11:10:50;7.55;;;3.70;;
79640;SDS011;69115;49.904;14.390;2023-05-10T11:15:53;4.70;;;3.55;;
79640;SDS011;69115;49.904;14.390;2023-05-10T11:18:19;6.93;;;3.28;;
79640;SDS011;69115;49.904;14.390;2023-05-10T11:21:01;5.53;;;3.67;;
79640;SDS011;69115;49.904;14.390;2023-05-10T11:23:55;5.38;;;3.00;;
79640;SDS011;69115;49.904;14.390;2023-05-10T11:26:23;5.63;;;3.50;;
79640;SDS011;69115;49.904;14.390;2023-05-10T11:28:51;6.22;;;3.35;;
79640;SDS011;69115;49.904;14.390;2023-05-10T11:31:24;6.50;;;3.10;;
79640;SDS011;69115;49.904;14.390;2023-05-10T11:33:52;6.05;;;3.30;;
79640;SDS011;69115;49.904;14.390;2023-05-10T11:36:19;6.35;;;3.92;;
79640;SDS011;69115;49.904;14.390;2023-05-10T11:38:47;9.10;;;3.88;;
79640;SDS011;69115;49.904;14.390;2023-05-10T11:41:12;10.57;;;3.50;;
79640;SDS011;69115;49.904;14.390;2023-05-10T11:43:38;5.35;;;3.40;;
79640;SDS011;69115;49.904;14.390;2023-05-10T11:46:05;4.55;;;3.30;;
79640;SDS011;69115;49.904;14.390;2023-05-10T11:48:31;5.53;;;3.35;;
79640;SDS011;69115;49.904;14.390;2023-05-10T11:50:57;4.82;;;3.38;;
79640;SDS011;69115;49.904;14.390;2023-05-10T11:53:23;11.38;;;3.42;;
79640;SDS011;69115;49.904;14.390;2023-05-10T11:55:50;6.95;;;3.47;;
79640;SDS011;69115;49.904;14.390;2023-05-10T11:58:17;28.92;;;4.88;;
79640;SDS011;69115;49.904;14.390;2023-05-10T12:00:43;9.13;;;3.42;;
79640;SDS011;69115;49.904;14.390;2023-05-10T12:03:09;5.82;;;3.45;;
79640;SDS011;69115;49.904;14.390;2023-05-10T12:05:35;5.75;;;3.38;;
79640;SDS011;69115;49.904;14.390;2023-05-10T12:08:13;4.82;;;3.20;;
79640;SDS011;69115;49.904;14.390;2023-05-10T12:10:40;5.55;;;3.78;;
79640;SDS011;69115;49.904;14.390;2023-05-10T12:13:10;5.22;;;3.55;;
79640;SDS011;69115;49.904;14.390;2023-05-10T12:15:36;14.77;;;4.20;;
79640;SDS011;69115;49.904;14.390;2023-05-10T12:18:01;5.72;;;3.40;;
79640;SDS011;69115;49.904;14.390;2023-05-10T12:20:27;6.00;;;3.47;;
79640;SDS011;69115;49.904;14.390;2023-05-10T12:22:54;7.55;;;3.97;;
79640;SDS011;69115;49.904;14.390;2023-05-10T12:25:21;8.48;;;3.90;;
79640;SDS011;69115;49.904;14.390;2023-05-10T12:27:48;4.95;;;3.40;;
79640;SDS011;69115;49.904;14.390;2023-05-10T12:30:19;5.82;;;3.30;;
79640;SDS011;69115;49.904;14.390;2023-05-10T12:32:54;6.50;;;3.75;;
79640;SDS011;69115;49.904;14.390;2023-05-10T12:35:31;6.57;;;3.75;;
79640;SDS011;69115;49.904;14.390;2023-05-10T12:37:57;6.80;;;3.42;;
79640;SDS011;69115;49.904;14.390;2023-05-10T12:40:22;7.28;;;3.83;;
79640;SDS011;69115;49.904;14.390;2023-05-10T12:42:47;4.45;;;3.63;;
79640;SDS011;69115;49.904;14.390;2023-05-10T12:45:13;7.45;;;3.92;;
79640;SDS011;69115;49.904;14.390;2023-05-10T12:47:39;5.25;;;3.85;;
79640;SDS011;69115;49.904;14.390;2023-05-10T12:50:05;5.80;;;3.53;;
79640;SDS011;69115;49.904;14.390;2023-05-10T12:52:31;5.85;;;3.72;;
79640;SDS011;69115;49.904;14.390;2023-05-10T12:54:57;6.53;;;3.25;;
79640;SDS011;69115;49.904;14.390;2023-05-10T12:57:24;6.80;;;3.65;;
79640;SDS011;69115;49.904;14.390;2023-05-10T12:59:49;6.05;;;3.65;;
79640;SDS011;69115;49.904;14.390;2023-05-10T13:02:15;6.05;;;3.50;;
79640;SDS011;69115;49.904;14.390;2023-05-10T13:04:42;6.28;;;3.90;;
79640;SDS011;69115;49.904;14.390;2023-05-10T13:07:08;4.10;;;3.10;;
79640;SDS011;69115;49.904;14.390;2023-05-10T13:09:34;9.77;;;3.58;;
79640;SDS011;69115;49.904;14.390;2023-05-10T13:11:59;5.82;;;3.28;;
79640;SDS011;69115;49.904;14.390;2023-05-10T13:14:25;7.93;;;3.38;;
79640;SDS011;69115;49.904;14.390;2023-05-10T13:16:50;7.20;;;3.75;;
79640;SDS011;69115;49.904;14.390;2023-05-10T13:19:16;6.65;;;3.63;;
79640;SDS011;69115;49.904;14.390;2023-05-10T13:21:43;5.97;;;3.80;;
79640;SDS011;69115;49.904;14.390;2023-05-10T13:24:09;5.93;;;3.70;;
79640;SDS011;69115;49.904;14.390;2023-05-10T13:26:35;8.95;;;3.63;;
79640;SDS011;69115;49.904;14.390;2023-05-10T13:29:01;5.75;;;3.92;;
79640;SDS011;69115;49.904;14.390;2023-05-10T13:31:27;9.38;;;5.63;;
79640;SDS011;69115;49.904;14.390;2023-05-10T13:33:52;14.38;;;7.00;;
79640;SDS011;69115;49.904;14.390;2023-05-10T13:36:18;7.80;;;4.95;;
79640;SDS011;69115;49.904;14.390;2023-05-10T13:38:43;16.02;;;5.75;;
79640;SDS011;69115;49.904;14.390;2023-05-10T13:41:09;7.18;;;4.82;;
79640;SDS011;69115;49.904;14.390;2023-05-10T13:43:35;8.25;;;4.22;;
79640;SDS011;69115;49.904;14.390;2023-05-10T13:46:01;5.63;;;3.88;;
79640;SDS011;69115;49.904;14.390;2023-05-10T13:48:26;5.65;;;4.57;;
79640;SDS011;69115;49.904;14.390;2023-05-10T13:50:52;6.60;;;4.38;;
79640;SDS011;69115;49.904;14.390;2023-05-10T13:53:17;6.47;;;3.72;;
79640;SDS011;69115;49.904;14.390;2023-05-10T13:55:43;6.00;;;4.20;;
79640;SDS011;69115;49.904;14.390;2023-05-10T13:58:08;7.78;;;3.75;;
79640;SDS011;69115;49.904;14.390;2023-05-10T14:00:34;5.20;;;4.00;;
79640;SDS011;69115;49.904;14.390;2023-05-10T14:02:59;9.95;;;4.20;;
79640;SDS011;69115;49.904;14.390;2023-05-10T14:05:25;6.88;;;4.10;;
79640;SDS011;69115;49.904;14.390;2023-05-10T14:07:50;9.68;;;4.30;;
79640;SDS011;69115;49.904;14.390;2023-05-10T14:10:16;6.20;;;4.28;;
79640;SDS011;69115;49.904;14.390;2023-05-10T14:12:42;7.15;;;4.57;;
79640;SDS011;69115;49.904;14.390;2023-05-10T14:15:07;8.55;;;5.13;;
79640;SDS011;69115;49.904;14.390;2023-05-10T14:17:35;6.63;;;4.50;;
79640;SDS011;69115;49.904;14.390;2023-05-10T14:20:00;6.55;;;4.57;;
79640;SDS011;69115;49.904;14.390;2023-05-10T14:22:27;7.45;;;4.30;;
79640;SDS011;69115;49.904;14.390;2023-05-10T14:24:52;40.03;;;6.28;;
79640;SDS011;69115;49.904;14.390;2023-05-10T14:27:17;23.55;;;5.95;;
79640;SDS011;69115;49.904;14.390;2023-05-10T14:29:43;60.85;;;7.50;;
79640;SDS011;69115;49.904;14.390;2023-05-10T14:32:09;12.30;;;4.95;;
79640;SDS011;69115;49.904;14.390;2023-05-10T14:34:34;12.65;;;4.60;;
79640;SDS011;69115;49.904;14.390;2023-05-10T14:36:59;10.88;;;4.55;;
79640;SDS011;69115;49.904;14.390;2023-05-10T14:39:25;12.32;;;4.35;;
79640;SDS011;69115;49.904;14.390;2023-05-10T14:41:50;62.90;;;7.07;;
79640;SDS011;69115;49.904;14.390;2023-05-10T14:44:17;21.17;;;5.50;;
79640;SDS011;69115;49.904;14.390;2023-05-10T14:46:42;9.32;;;3.95;;
79640;SDS011;69115;49.904;14.390;2023-05-10T14:49:08;7.75;;;4.18;;
79640;SDS011;69115;49.904;14.390;2023-05-10T14:51:33;6.35;;;4.20;;
79640;SDS011;69115;49.904;14.390;2023-05-10T14:53:59;10.13;;;3.75;;
79640;SDS011;69115;49.904;14.390;2023-05-10T14:56:24;7.03;;;3.72;;
79640;SDS011;69115;49.904;14.390;2023-05-10T14:58:51;5.60;;;4.35;;
79640;SDS011;69115;49.904;14.390;2023-05-10T15:01:16;6.18;;;3.83;;
79640;SDS011;69115;49.904;14.390;2023-05-10T15:03:42;11.70;;;3.80;;
79640;SDS011;69115;49.904;14.390;2023-05-10T15:06:08;6.30;;;3.80;;